Wetterstation Vordersexau
Wetterdaten: Woche 04.12.23 - 10.12.23 (KW49)
Datum Zeit Temp. A. Feuchte A. Luftdruck Regen Wind Richtung Taupunkt Windchill Windben
06.12.2023 19:00 3,4 C 97 % 1012,3 hPa 0,0 l/m 0,0 km/h (0 Bft) N 3,0 C 3,4 C 0,0 km/h (0 Bft)
06.12.2023 20:00 3,3 C 98 % 1013,7 hPa 0,0 l/m 0,0 km/h (0 Bft) N 3,0 C 3,3 C 2,5 km/h (1 Bft)
06.12.2023 21:00 3,0 C 98 % 1014,0 hPa 0,0 l/m 0,0 km/h (0 Bft) SW 2,7 C 3,0 C 1,3 km/h (1 Bft)
06.12.2023 22:00 2,7 C 98 % 1014,3 hPa 0,0 l/m 0,6 km/h (0 Bft) N 2,4 C 2,7 C 1,3 km/h (1 Bft)
06.12.2023 23:00 1,7 C 99 % 1014,8 hPa 0,0 l/m 0,0 km/h (0 Bft) N 1,5 C 1,7 C 0,0 km/h (0 Bft)
07.12.2023 00:00 0,9 C 99 % 1015,6 hPa 0,0 l/m 0,0 km/h (0 Bft) N 0,8 C 0,9 C 1,3 km/h (1 Bft)
07.12.2023 01:00 1,2 C 99 % 1016,0 hPa 0,0 l/m 0,0 km/h (0 Bft) N 1,0 C 1,2 C 1,3 km/h (1 Bft)
07.12.2023 02:00 1,1 C 99 % 1016,5 hPa 0,0 l/m 1,3 km/h (1 Bft) S-SW 1,0 C 1,1 C 1,8 km/h (1 Bft)
07.12.2023 03:00 0,5 C 98 % 1016,8 hPa 0,0 l/m 0,0 km/h (0 Bft) N 0,2 C 0,5 C 1,3 km/h (1 Bft)
07.12.2023 04:00 -0,2 C 99 % 1017,1 hPa 0,0 l/m 0,0 km/h (0 Bft) N -0,4 C -0,2 C 2,5 km/h (1 Bft)
07.12.2023 05:00 -0,9 C 99 % 1017,4 hPa 0,0 l/m 0,0 km/h (0 Bft) N -1,0 C -0,9 C 0,0 km/h (0 Bft)
07.12.2023 06:00 -1,1 C 99 % 1017,5 hPa 0,0 l/m 0,0 km/h (0 Bft) N -1,3 C -1,1 C 0,0 km/h (0 Bft)
07.12.2023 07:00 -1,8 C 99 % 1017,5 hPa 0,0 l/m 0,0 km/h (0 Bft) N -1,9 C -1,8 C 0,0 km/h (0 Bft)
07.12.2023 08:00 -2,0 C 99 % 1017,7 hPa 0,0 l/m 0,0 km/h (0 Bft) N -2,2 C -2,0 C 0,0 km/h (0 Bft)
07.12.2023 09:00 -0,1 C 97 % 1017,7 hPa 0,0 l/m 0,0 km/h (0 Bft) N -0,6 C -0,1 C 0,0 km/h (0 Bft)
07.12.2023 10:00 0,8 C 95 % 1017,1 hPa 0,0 l/m 0,6 km/h (0 Bft) W -0,0 C 0,8 C 3,0 km/h (1 Bft)
07.12.2023 11:00 1,9 C 92 % 1016,7 hPa 0,0 l/m 2,5 km/h (1 Bft) W 0,7 C 1,9 C 3,6 km/h (1 Bft)
07.12.2023 12:00 3,4 C 87 % 1015,2 hPa 0,0 l/m 2,3 km/h (1 Bft) W-SW 1,5 C 3,4 C 4,3 km/h (1 Bft)
07.12.2023 13:00 3,6 C 86 % 1014,5 hPa 0,0 l/m 3,6 km/h (1 Bft) W-NW 1,5 C 3,6 C 6,1 km/h (2 Bft)
07.12.2023 14:00 2,2 C 92 % 1014,0 hPa 0,0 l/m 1,3 km/h (1 Bft) W-NW 1,0 C 2,2 C 3,0 km/h (1 Bft)
07.12.2023 15:00 1,7 C 94 % 1012,2 hPa 0,0 l/m 1,8 km/h (1 Bft) W 0,8 C 1,7 C 4,3 km/h (1 Bft)
07.12.2023 16:00 1,0 C 96 % 1011,3 hPa 0,0 l/m 0,6 km/h (0 Bft) W 0,5 C 1,0 C 1,3 km/h (1 Bft)
07.12.2023 17:00 0,0 C 98 % 1010,5 hPa 0,0 l/m 0,0 km/h (0 Bft) N -0,3 C 0,0 C 0,0 km/h (0 Bft)
07.12.2023 18:00 0,2 C 98 % 1009,5 hPa 0,0 l/m 0,0 km/h (0 Bft) N -0,1 C 0,2 C 1,3 km/h (1 Bft)
07.12.2023 19:00 0,4 C 99 % 1009,4 hPa 0,0 l/m 0,0 km/h (0 Bft) N 0,2 C 0,4 C 1,3 km/h (1 Bft)
07.12.2023 20:00 0,3 C 99 % 1009,0 hPa 0,0 l/m 0,0 km/h (0 Bft) N 0,1 C 0,3 C 0,0 km/h (0 Bft)
07.12.2023 21:00 0,3 C 99 % 1007,5 hPa 0,0 l/m 0,6 km/h (0 Bft) O 0,1 C 0,3 C 1,8 km/h (1 Bft)
07.12.2023 22:00 0,5 C 99 % 1006,4 hPa 0,0 l/m 0,0 km/h (0 Bft) N 0,3 C 0,5 C 0,0 km/h (0 Bft)
07.12.2023 23:00 0,8 C 98 % 1005,8 hPa 0,0 l/m 0,0 km/h (0 Bft) N 0,5 C 0,8 C 0,0 km/h (0 Bft)
08.12.2023 00:00 0,9 C 98 % 1005,4 hPa 0,0 l/m 0,0 km/h (0 Bft) N 0,7 C 0,9 C 0,0 km/h (0 Bft)
08.12.2023 01:00 1,1 C 98 % 1005,5 hPa 0,0 l/m 0,6 km/h (0 Bft) N 0,7 C 1,1 C 2,5 km/h (1 Bft)
08.12.2023 02:00 1,2 C 98 % 1005,3 hPa 0,0 l/m 0,0 km/h (0 Bft) N 0,8 C 1,2 C 0,0 km/h (0 Bft)
08.12.2023 03:00 1,3 C 97 % 1006,0 hPa 0,0 l/m 0,6 km/h (0 Bft) O-SO 0,9 C 1,3 C 1,3 km/h (1 Bft)
08.12.2023 04:00 2,1 C 94 % 1006,3 hPa 0,0 l/m 1,8 km/h (1 Bft) SO 1,2 C 2,1 C 3,0 km/h (1 Bft)
08.12.2023 05:00 2,3 C 95 % 1006,0 hPa 1,2 l/m 0,6 km/h (0 Bft) O-NO 1,5 C 2,3 C 2,5 km/h (1 Bft)
08.12.2023 06:00 2,8 C 98 % 1006,5 hPa 1,5 l/m 1,3 km/h (1 Bft) N 2,4 C 2,8 C 3,0 km/h (1 Bft)
08.12.2023 07:00 3,7 C 99 % 1006,5 hPa 1,5 l/m 0,0 km/h (0 Bft) N 3,5 C 3,7 C 1,3 km/h (1 Bft)
08.12.2023 08:00 4,3 C 99 % 1006,6 hPa 1,2 l/m 0,0 km/h (0 Bft) N 4,2 C 4,3 C 0,0 km/h (0 Bft)
08.12.2023 09:00 4,9 C 99 % 1006,2 hPa 0,0 l/m 0,6 km/h (0 Bft) O-SO 4,8 C 4,9 C 1,3 km/h (1 Bft)
08.12.2023 10:00 6,4 C 99 % 1006,1 hPa 0,0 l/m 0,0 km/h (0 Bft) N 6,3 C 6,4 C 1,3 km/h (1 Bft)
08.12.2023 11:00 7,1 C 99 % 1006,1 hPa 0,0 l/m 0,0 km/h (0 Bft) N 6,8 C 7,1 C 1,3 km/h (1 Bft)
08.12.2023 12:00 8,1 C 96 % 1005,6 hPa 0,0 l/m 5,6 km/h (1 Bft) W-SW 7,5 C 6,5 C 8,6 km/h (2 Bft)
08.12.2023 13:00 8,9 C 92 % 1005,5 hPa 0,0 l/m 4,3 km/h (1 Bft) SW 7,6 C 8,9 C 6,6 km/h (2 Bft)
08.12.2023 14:00 9,0 C 91 % 1005,5 hPa 0,0 l/m 4,3 km/h (1 Bft) W 7,6 C 9,0 C 9,2 km/h (2 Bft)
08.12.2023 15:00 8,8 C 93 % 1006,2 hPa 0,0 l/m 2,3 km/h (1 Bft) W 7,6 C 8,8 C 4,8 km/h (1 Bft)
08.12.2023 16:00 8,4 C 94 % 1007,0 hPa 0,0 l/m 0,0 km/h (0 Bft) W 7,4 C 8,4 C 0,0 km/h (0 Bft)
08.12.2023 17:00 8,1 C 95 % 1007,8 hPa 0,0 l/m 1,1 km/h (1 Bft) W 7,4 C 8,1 C 3,6 km/h (1 Bft)
08.12.2023 18:00 7,8 C 96 % 1008,3 hPa 0,0 l/m 0,0 km/h (0 Bft) N 7,2 C 7,8 C 2,5 km/h (1 Bft)
08.12.2023 19:00 7,3 C 98 % 1008,6 hPa 0,0 l/m 0,6 km/h (0 Bft) W 6,9 C 7,3 C 2,5 km/h (1 Bft)
08.12.2023 20:00 6,7 C 99 % 1008,9 hPa 0,0 l/m 0,0 km/h (0 Bft) N 6,6 C 6,7 C 0,0 km/h (0 Bft)
08.12.2023 21:00 6,2 C 99 % 1009,4 hPa 0,0 l/m 0,6 km/h (0 Bft) N 6,1 C 6,2 C 1,3 km/h (1 Bft)
08.12.2023 22:00 6,3 C 99 % 1009,8 hPa 0,3 l/m 0,0 km/h (0 Bft) N 6,1 C 6,3 C 0,0 km/h (0 Bft)
08.12.2023 23:00 6,4 C 99 % 1010,2 hPa 0,0 l/m 0,0 km/h (0 Bft) N 6,2 C 6,4 C 0,0 km/h (0 Bft)
09.12.2023 00:00 5,7 C 99 % 1010,6 hPa 0,0 l/m 0,0 km/h (0 Bft) N 5,6 C 5,7 C 0,0 km/h (0 Bft)
09.12.2023 01:00 5,4 C 99 % 1011,3 hPa 0,0 l/m 0,0 km/h (0 Bft) N-NO 5,3 C 5,4 C 0,0 km/h (0 Bft)
09.12.2023 02:00 5,6 C 99 % 1011,8 hPa 0,0 l/m 0,6 km/h (0 Bft) N-NO 5,5 C 5,6 C 3,0 km/h (1 Bft)
09.12.2023 03:00 5,0 C 99 % 1012,0 hPa 0,0 l/m 0,6 km/h (0 Bft) N 4,9 C 5,0 C 2,5 km/h (1 Bft)
09.12.2023 04:00 5,4 C 99 % 1011,4 hPa 0,0 l/m 0,0 km/h (0 Bft) N 5,2 C 5,4 C 0,0 km/h (0 Bft)
09.12.2023 05:00 6,1 C 99 % 1011,5 hPa 0,0 l/m 0,0 km/h (0 Bft) W-SW 6,0 C 6,1 C 0,0 km/h (0 Bft)
09.12.2023 06:00 7,4 C 95 % 1011,5 hPa 0,0 l/m 2,3 km/h (1 Bft) S-SW 6,6 C 7,4 C 4,8 km/h (1 Bft)
09.12.2023 07:00 7,9 C 91 % 1010,8 hPa 0,0 l/m 4,3 km/h (1 Bft) SW 6,5 C 7,9 C 6,6 km/h (2 Bft)
09.12.2023 08:00 7,4 C 91 % 1010,8 hPa 0,0 l/m 0,6 km/h (0 Bft) N 5,9 C 7,4 C 1,3 km/h (1 Bft)
09.12.2023 09:00 7,6 C 91 % 1010,5 hPa 0,0 l/m 1,3 km/h (1 Bft) S-SW 6,1 C 7,6 C 4,3 km/h (1 Bft)
09.12.2023 10:00 8,5 C 86 % 1009,8 hPa 0,0 l/m 1,8 km/h (1 Bft) SW 6,2 C 8,5 C 3,0 km/h (1 Bft)
09.12.2023 11:00 8,6 C 86 % 1009,0 hPa 0,0 l/m 0,6 km/h (0 Bft) S-SO 6,4 C 8,6 C 1,3 km/h (1 Bft)
09.12.2023 12:00 10,1 C 76 % 1006,7 hPa 0,0 l/m 4,8 km/h (1 Bft) S 5,9 C 9,8 C 8,4 km/h (2 Bft)
09.12.2023 13:00 10,4 C 71 % 1004,3 hPa 0,0 l/m 4,3 km/h (1 Bft) S-SO 5,4 C 10,4 C 6,6 km/h (2 Bft)
09.12.2023 14:00 9,1 C 77 % 1051,6 hPa 0,6 l/m 5,6 km/h (1 Bft) SW 5,2 C 9,1 C 8,4 km/h (2 Bft)
09.12.2023 15:00 7,3 C 91 % 1002,2 hPa 2,1 l/m 4,3 km/h (1 Bft) O-SO 5,9 C 7,3 C 8,4 km/h (2 Bft)
09.12.2023 16:00 7,2 C 93 % 999,8 hPa 0,3 l/m 3,8 km/h (1 Bft) S-SO 6,1 C 7,2 C 5,4 km/h (1 Bft)
09.12.2023 17:00 7,8 C 90 % 998,4 hPa 0,3 l/m 1,8 km/h (1 Bft) NO 6,2 C 7,8 C 3,0 km/h (1 Bft)
09.12.2023 18:00 7,8 C 94 % 996,9 hPa 0,0 l/m 1,8 km/h (1 Bft) O-NO 6,8 C 7,8 C 3,6 km/h (1 Bft)
09.12.2023 19:00 10,8 C 89 % 996,0 hPa 0,0 l/m 11,7 km/h (2 Bft) W-SW 9,0 C 7,6 C 21,5 km/h (4 Bft)
09.12.2023 20:00 10,4 C 94 % 997,0 hPa 2,1 l/m 14,8 km/h (3 Bft) SW 9,5 C 5,9 C 22,0 km/h (4 Bft)
09.12.2023 21:00 9,6 C 98 % 998,4 hPa 0,6 l/m 11,2 km/h (2 Bft) S-SW 9,3 C 6,5 C 13,3 km/h (3 Bft)
09.12.2023 22:00 10,1 C 91 % 1000,1 hPa 0,0 l/m 9,9 km/h (2 Bft) S 8,6 C 7,8 C 14,8 km/h (3 Bft)
09.12.2023 23:00 10,1 C 86 % 1001,3 hPa 0,0 l/m 10,3 km/h (2 Bft) W-SW 7,8 C 7,8 C 16,0 km/h (3 Bft)
10.12.2023 00:00 8,9 C 95 % 1003,9 hPa 0,9 l/m 8,1 km/h (2 Bft) W-SW 8,1 C 7,4 C 14,3 km/h (3 Bft)
10.12.2023 01:00 8,6 C 92 % 1005,6 hPa 0,0 l/m 6,6 km/h (2 Bft) SW 7,3 C 8,3 C 9,7 km/h (2 Bft)
10.12.2023 02:00 9,1 C 86 % 1006,6 hPa 0,0 l/m 3,8 km/h (1 Bft) S-SW 6,8 C 9,1 C 6,6 km/h (2 Bft)
10.12.2023 03:00 9,4 C 81 % 1007,7 hPa 0,0 l/m 8,4 km/h (2 Bft) W-SW 6,3 C 8,0 C 12,3 km/h (3 Bft)
10.12.2023 04:00 8,6 C 87 % 1008,9 hPa 0,0 l/m 7,4 km/h (2 Bft) W-SW 6,5 C 7,8 C 13,5 km/h (3 Bft)
10.12.2023 05:00 7,8 C 89 % 1009,5 hPa 0,0 l/m 6,8 km/h (2 Bft) W-SW 6,0 C 6,9 C 9,7 km/h (2 Bft)
10.12.2023 06:00 7,3 C 88 % 1010,3 hPa 0,0 l/m 4,8 km/h (1 Bft) S-SW 5,3 C 7,3 C 8,6 km/h (2 Bft)
10.12.2023 07:00 7,9 C 85 % 1011,2 hPa 0,0 l/m 6,1 km/h (2 Bft) SW 5,5 C 7,1 C 8,6 km/h (2 Bft)
10.12.2023 08:00 8,6 C 84 % 1012,1 hPa 0,0 l/m 10,4 km/h (2 Bft) W-SW 6,0 C 5,7 C 14,1 km/h (3 Bft)
10.12.2023 09:00 8,8 C 84 % 1012,3 hPa 0,0 l/m 14,8 km/h (3 Bft) W-SW 6,2 C 3,7 C 22,0 km/h (4 Bft)
10.12.2023 10:00 9,1 C 84 % 1012,7 hPa 0,0 l/m 14,0 km/h (3 Bft) W-SW 6,4 C 4,5 C 21,5 km/h (4 Bft)
10.12.2023 11:00 10,0 C 82 % 1012,1 hPa 0,0 l/m 12,2 km/h (2 Bft) SW 7,1 C 6,6 C 16,6 km/h (3 Bft)
10.12.2023 12:00 10,1 C 82 % 1011,0 hPa 0,0 l/m 16,5 km/h (3 Bft) SW 7,2 C 4,6 C 23,8 km/h (4 Bft)
10.12.2023 13:00 10,7 C 78 % 1010,3 hPa 0,0 l/m 10,4 km/h (2 Bft) W-SW 7,0 C 8,1 C 16,6 km/h (3 Bft)
10.12.2023 14:00 10,9 C 74 % 1009,7 hPa 0,0 l/m 11,5 km/h (2 Bft) SW 6,4 C 7,9 C 19,1 km/h (3 Bft)
10.12.2023 15:00 10,6 C 75 % 1009,1 hPa 0,0 l/m 9,1 km/h (2 Bft) SW 6,3 C 8,8 C 15,9 km/h (3 Bft)
10.12.2023 16:00 10,0 C 76 % 1008,4 hPa 0,0 l/m 3,6 km/h (1 Bft) S-SO 6,0 C 10,0 C 6,1 km/h (2 Bft)
10.12.2023 17:00 9,4 C 75 % 1007,0 hPa 0,0 l/m 3,0 km/h (1 Bft) S-SW 5,1 C 9,4 C 4,8 km/h (1 Bft)
10.12.2023 18:00 8,6 C 78 % 1006,0 hPa 0,0 l/m 0,6 km/h (0 Bft) O 4,9 C 8,6 C 1,3 km/h (1 Bft)
10.12.2023 19:00 8,6 C 77 % 1005,8 hPa 0,0 l/m 1,3 km/h (1 Bft) O-NO 4,7 C 8,6 C 1,8 km/h (1 Bft)
10.12.2023 20:00 12,5 C 45 % 1004,2 hPa 0,0 l/m 7,4 km/h (2 Bft) W-SW 0,8 C 11,8 C 11,5 km/h (2 Bft)
10.12.2023 21:00 12,1 C 46 % 1003,3 hPa 0,0 l/m 7,9 km/h (2 Bft) W 0,9 C 11,1 C 11,5 km/h (2 Bft)
10.12.2023 22:00 10,6 C 67 % 1003,1 hPa 0,3 l/m 9,1 km/h (2 Bft) W-SW 4,7 C 8,7 C 17,6 km/h (3 Bft)
10.12.2023 23:00 10,9 C 73 % 1003,0 hPa 0,0 l/m 14,0 km/h (3 Bft) S-SW 6,2 C 6,7 C 21,5 km/h (4 Bft)
Min-Datum _ 07.12.23 10.12.23 09.12.23 - 06.12.23 - 07.12.23 07.12.23 06.12.23
_ Min-Zeit 08:07 20:37 19:37 - 19:07 - 08:07 08:07 19:07
Minimum _ -2,1 C 42 % 995,7 hPa - 0,0 km/h (0 Bft) - -2,2 C -2,1 C 0,0 km/h (0 Bft)
Max-Datum _ 10.12.23 06.12.23 09.12.23 09.12.23 09.12.23 - 09.12.23 10.12.23 09.12.23
_ Max-Zeit 20:37 23:37 14:37 15:37 20:07 - 20:37 21:07 20:07
Maximum _ 12,8 C 99 % 1100,0 hPa 2,1 l/m 18,4 km/h
SW (3 Bft)
- 9,5 C 12,5 C 25,6 km/h
SW (4 Bft)
Durchschnitt _ 5,7 C 91 % 1009,3 hPa #12,9 l/m 3,3 km/h (1 Bft) W-SW 4,2 C 5,1 C 5,6 km/h (1 Bft)
www.sexauwetter.de